createdAt,value
2022-08-08T00:00:55.025Z,54.57
2022-08-08T00:01:12.408Z,54.23
2022-08-08T00:02:31.047Z,54.34
2022-08-08T00:03:47.316Z,54.54
2022-08-08T00:04:56.883Z,54.75
2022-08-08T00:06:06.355Z,54.65
2022-08-08T00:07:17.293Z,54.99
2022-08-08T00:08:30.127Z,54.63
2022-08-08T00:09:43.739Z,54.55
2022-08-08T00:10:54.216Z,55.21
2022-08-08T00:12:09.403Z,54.97
2022-08-08T00:14:15.074Z,55.09
2022-08-08T00:15:00.287Z,54.84
2022-08-08T00:16:08.584Z,55.44
2022-08-08T00:17:23.429Z,55.35
2022-08-08T00:18:34.452Z,55.42
2022-08-08T00:19:51.425Z,55.39
2022-08-08T00:20:57.441Z,55.14
2022-08-08T00:22:05.623Z,55.70
2022-08-08T00:23:17.563Z,55.78
2022-08-08T00:24:29.933Z,55.92
2022-08-08T00:25:46.473Z,55.57
2022-08-08T00:26:57.666Z,55.72
2022-08-08T00:28:03.597Z,55.97
2022-08-08T00:29:14.954Z,55.81
2022-08-08T00:30:19.237Z,55.72
2022-08-08T00:32:29.128Z,56.09
2022-08-08T00:33:02.581Z,55.87
2022-08-08T00:34:47.301Z,55.88
2022-08-08T00:35:58.331Z,56.38
2022-08-08T00:37:45.028Z,56.33
2022-08-08T00:38:51.658Z,56.26
2022-08-08T00:41:07.670Z,56.23
2022-08-08T00:42:36.596Z,56.55
2022-08-08T00:44:00.716Z,56.27
2022-08-08T00:45:40.627Z,56.78
2022-08-08T00:47:23.006Z,56.75
2022-08-08T00:49:01.169Z,56.88
2022-08-08T00:50:48.162Z,56.80
2022-08-08T00:52:20.132Z,57.26
2022-08-08T00:53:43.540Z,56.97
2022-08-08T00:55:22.238Z,57.11
2022-08-08T00:57:23.395Z,57.39
2022-08-08T00:58:54.375Z,57.33
2022-08-08T01:00:08.816Z,57.30
2022-08-08T01:01:38.396Z,57.63
2022-08-08T01:04:01.352Z,57.43
2022-08-08T01:05:03.891Z,57.60
2022-08-08T01:06:27.992Z,57.71
2022-08-08T01:08:11.989Z,57.78
2022-08-08T01:09:55.697Z,57.72
2022-08-08T01:11:41.580Z,58.03
2022-08-08T01:13:44.067Z,58.13
2022-08-08T01:15:43.385Z,58.13
2022-08-08T01:17:34.908Z,58.25
2022-08-08T01:19:25.372Z,58.10
2022-08-08T01:20:57.467Z,58.34
2022-08-08T01:22:35.805Z,58.40
2022-08-08T01:24:13.551Z,58.46
2022-08-08T01:25:54.110Z,58.38
2022-08-08T01:27:16.206Z,58.34
2022-08-08T01:28:45.241Z,58.32
2022-08-08T01:30:25.210Z,58.68
2022-08-08T01:32:13.877Z,58.51
2022-08-08T01:34:00.694Z,58.79
2022-08-08T01:35:30.732Z,58.61
2022-08-08T01:37:17.299Z,59.15
2022-08-08T01:38:59.575Z,58.94
2022-08-08T01:40:14.804Z,58.83
2022-08-08T01:41:34.415Z,58.89
2022-08-08T01:42:49.908Z,59.01
2022-08-08T01:44:03.965Z,59.23
2022-08-08T01:45:19.155Z,59.14
2022-08-08T01:46:41.019Z,59.38
2022-08-08T01:48:15.404Z,59.53
2022-08-08T01:49:37.726Z,59.30
2022-08-08T01:51:00.300Z,59.38
2022-08-08T01:52:50.077Z,59.68
2022-08-08T01:55:15.195Z,59.76
2022-08-08T01:56:27.682Z,59.86
2022-08-08T01:56:53.735Z,59.90
2022-08-08T01:58:38.549Z,59.76
2022-08-08T02:00:01.698Z,60.03
2022-08-08T02:01:17.805Z,59.99
2022-08-08T02:02:41.612Z,60.02
2022-08-08T02:03:58.486Z,60.23
2022-08-08T02:05:23.263Z,60.45
2022-08-08T02:06:43.647Z,60.49
2022-08-08T02:07:58.917Z,60.51
2022-08-08T02:09:17.412Z,60.44
2022-08-08T02:10:45.116Z,60.50
2022-08-08T02:12:00.225Z,60.53
2022-08-08T02:13:54.872Z,60.70
2022-08-08T02:14:49.778Z,60.60
2022-08-08T02:16:20.538Z,60.69
2022-08-08T02:17:36.602Z,60.93
2022-08-08T02:18:58.860Z,61.13
2022-08-08T02:20:16.211Z,61.07
2022-08-08T02:22:06.036Z,61.11
2022-08-08T02:23:16.369Z,61.21
2022-08-08T02:24:22.893Z,61.37
2022-08-08T02:25:47.295Z,61.36
2022-08-08T02:26:58.158Z,61.38
2022-08-08T02:28:06.413Z,61.40
2022-08-08T02:29:41.425Z,61.51
2022-08-08T02:31:43.463Z,61.63
2022-08-08T02:32:53.609Z,61.38
2022-08-08T02:34:08.438Z,61.73
2022-08-08T02:36:04.067Z,61.72
2022-08-08T02:37:52.014Z,61.50
2022-08-08T02:39:01.172Z,61.88
2022-08-08T02:40:09.663Z,62.01
2022-08-08T02:41:58.796Z,61.87
2022-08-08T02:44:42.373Z,62.17
2022-08-08T02:45:54.235Z,62.18
2022-08-08T02:47:37.838Z,62.24
2022-08-08T02:49:06.782Z,62.33
2022-08-08T02:50:47.311Z,62.38
2022-08-08T02:52:35.297Z,62.39
2022-08-08T02:53:57.772Z,62.20
2022-08-08T02:55:36.566Z,62.37
2022-08-08T02:57:02.258Z,62.53
2022-08-08T02:58:45.040Z,62.76
2022-08-08T03:00:31.633Z,62.72
2022-08-08T03:02:20.014Z,62.82
2022-08-08T03:05:03.849Z,62.76
2022-08-08T03:06:24.297Z,62.91
2022-08-08T03:08:06.105Z,62.97
2022-08-08T03:10:00.620Z,62.98
2022-08-08T03:12:03.072Z,63.03
2022-08-08T03:15:57.496Z,63.10
2022-08-08T03:15:57.497Z,63.23
2022-08-08T03:16:53.953Z,63.30
2022-08-08T03:18:05.141Z,63.49
2022-08-08T03:19:24.586Z,63.42
2022-08-08T03:20:26.430Z,63.51
2022-08-08T03:21:54.769Z,63.71
2022-08-08T03:22:57.211Z,63.79
2022-08-08T03:24:02.011Z,63.74
2022-08-08T03:25:09.301Z,63.90
2022-08-08T03:26:27.288Z,64.09
2022-08-08T03:27:41.711Z,63.88
2022-08-08T03:28:51.467Z,64.10
2022-08-08T03:30:01.895Z,64.18
2022-08-08T03:31:25.830Z,64.29
2022-08-08T03:32:47.590Z,64.22
2022-08-08T03:34:01.245Z,64.40
2022-08-08T03:35:05.143Z,64.38
2022-08-08T03:36:19.777Z,64.48
2022-08-08T03:38:52.916Z,64.42
2022-08-08T03:39:07.445Z,64.47
2022-08-08T03:40:29.929Z,64.52
2022-08-08T03:42:13.378Z,64.67
2022-08-08T03:42:56.550Z,64.69
2022-08-08T03:43:59.948Z,64.75
2022-08-08T03:46:07.443Z,64.83
2022-08-08T03:46:25.506Z,64.74
2022-08-08T03:47:45.278Z,64.84
2022-08-08T03:49:30.873Z,64.94
2022-08-08T03:50:20.069Z,64.97
2022-08-08T03:51:50.588Z,65.05
2022-08-08T03:52:49.768Z,65.09
2022-08-08T03:53:54.948Z,65.16
2022-08-08T03:55:09.741Z,65.19
2022-08-08T03:56:31.357Z,65.26
2022-08-08T03:58:30.878Z,65.34
2022-08-08T03:58:58.819Z,65.37
2022-08-08T04:00:07.817Z,65.55
2022-08-08T04:01:25.837Z,65.54
2022-08-08T04:02:36.806Z,65.36
2022-08-08T04:03:58.354Z,65.83
2022-08-08T04:05:04.059Z,65.71
2022-08-08T04:06:12.898Z,65.66
2022-08-08T04:07:16.390Z,65.86
2022-08-08T04:08:33.664Z,65.68
2022-08-08T04:10:00.052Z,65.94
2022-08-08T04:11:11.456Z,66.34
2022-08-08T04:12:19.757Z,66.01
2022-08-08T04:13:22.501Z,65.98
2022-08-08T04:14:33.239Z,66.05
2022-08-08T04:15:38.580Z,66.22
2022-08-08T04:16:41.439Z,66.19
2022-08-08T04:17:58.417Z,66.00
2022-08-08T04:19:00.960Z,66.17
2022-08-08T04:20:05.725Z,66.31
2022-08-08T04:21:09.807Z,66.34
2022-08-08T04:22:12.735Z,66.39
2022-08-08T04:23:18.363Z,66.40
2022-08-08T04:24:28.507Z,66.40
2022-08-08T04:25:32.735Z,66.42
2022-08-08T04:26:56.852Z,66.36
2022-08-08T04:28:34.113Z,66.51
2022-08-08T04:29:19.995Z,66.40
2022-08-08T04:30:23.156Z,66.50
2022-08-08T04:31:30.779Z,66.64
2022-08-08T04:32:50.563Z,66.58
2022-08-08T04:33:52.491Z,66.52
2022-08-08T04:34:58.303Z,66.67
2022-08-08T04:36:00.353Z,66.92
2022-08-08T04:37:03.760Z,66.69
2022-08-08T04:38:06.933Z,66.94
2022-08-08T04:39:47.767Z,66.87
2022-08-08T04:40:35.429Z,66.44
2022-08-08T04:41:37.178Z,66.85
2022-08-08T04:42:55.827Z,66.74
2022-08-08T04:44:00.069Z,67.04
2022-08-08T04:45:02.148Z,66.90
2022-08-08T04:46:05.680Z,66.85
2022-08-08T04:47:11.828Z,66.92
2022-08-08T04:48:15.266Z,66.79
2022-08-08T04:49:16.904Z,66.91
2022-08-08T04:50:25.355Z,66.95
2022-08-08T04:51:57.399Z,66.95
2022-08-08T04:52:58.893Z,66.87
2022-08-08T04:54:39.010Z,66.89
2022-08-08T04:55:37.701Z,66.93
2022-08-08T04:56:52.571Z,66.97
2022-08-08T04:57:54.840Z,66.92
2022-08-08T04:59:01.843Z,67.08
2022-08-08T05:00:07.526Z,67.05
2022-08-08T05:01:13.181Z,66.97
2022-08-08T05:02:16.285Z,66.99
2022-08-08T05:04:09.567Z,67.03
2022-08-08T05:04:46.773Z,67.04
2022-08-08T05:05:53.528Z,67.01
2022-08-08T05:06:55.372Z,67.02
2022-08-08T05:07:58.003Z,66.93
2022-08-08T05:09:02.832Z,67.13
2022-08-08T05:10:12.697Z,67.00
2022-08-08T05:11:22.896Z,67.10
2022-08-08T05:12:28.941Z,67.05
2022-08-08T05:13:31.224Z,66.99
2022-08-08T05:14:34.334Z,67.00
2022-08-08T05:16:55.076Z,67.04
2022-08-08T05:17:00.546Z,66.90
2022-08-08T05:18:02.959Z,66.84
2022-08-08T05:19:05.617Z,66.99
2022-08-08T05:20:28.217Z,66.87
2022-08-08T05:21:30.640Z,66.85
2022-08-08T05:22:46.435Z,66.81
2022-08-08T05:23:50.679Z,66.77
2022-08-08T05:25:07.439Z,66.77
2022-08-08T05:26:09.096Z,66.74
2022-08-08T05:27:16.969Z,66.55
2022-08-08T05:28:48.169Z,66.51
2022-08-08T05:29:43.783Z,66.52
2022-08-08T05:30:47.623Z,66.44
2022-08-08T05:32:04.049Z,66.33
2022-08-08T05:33:08.358Z,66.44
2022-08-08T05:34:17.851Z,66.12
2022-08-08T05:35:24.407Z,66.09
2022-08-08T05:36:28.078Z,65.93
2022-08-08T05:37:51.747Z,65.88
2022-08-08T05:38:58.785Z,65.70
2022-08-08T05:40:04.719Z,65.51
2022-08-08T05:41:08.277Z,65.49
2022-08-08T05:42:11.021Z,65.17
2022-08-08T05:43:39.787Z,65.01
2022-08-08T05:44:49.276Z,64.82
2022-08-08T05:46:02.872Z,64.60
2022-08-08T05:47:07.569Z,64.81
2022-08-08T05:48:10.997Z,64.43
2022-08-08T05:49:18.095Z,64.46
2022-08-08T05:50:21.109Z,64.23
2022-08-08T05:51:22.722Z,63.85
2022-08-08T05:52:35.448Z,63.67
2022-08-08T05:54:26.264Z,63.39
2022-08-08T05:55:06.022Z,63.04
2022-08-08T05:56:15.175Z,62.63
2022-08-08T05:57:57.489Z,62.22
2022-08-08T05:58:56.727Z,62.04
2022-08-08T06:00:23.540Z,61.76
2022-08-08T06:01:55.565Z,61.95
2022-08-08T06:03:17.591Z,61.48
2022-08-08T06:04:31.251Z,61.48
2022-08-08T06:05:36.438Z,61.40
2022-08-08T06:06:41.907Z,60.94
2022-08-08T06:07:51.333Z,61.15
2022-08-08T06:09:58.972Z,60.67
2022-08-08T06:10:30.687Z,60.42
2022-08-08T06:11:33.748Z,60.00
2022-08-08T06:12:48.059Z,59.53
2022-08-08T06:13:52.571Z,59.74
2022-08-08T06:14:58.012Z,59.43
2022-08-08T06:16:02.090Z,59.57
2022-08-08T06:17:05.730Z,59.23
2022-08-08T06:18:20.571Z,58.87
2022-08-08T06:19:25.904Z,59.26
2022-08-08T06:20:29.356Z,59.23
2022-08-08T06:21:51.440Z,58.71
2022-08-08T06:22:56.290Z,58.52
2022-08-08T06:24:04.625Z,58.41
2022-08-08T06:25:08.611Z,58.36
2022-08-08T06:26:38.750Z,58.07
2022-08-08T06:27:47.881Z,58.19
2022-08-08T06:28:54.763Z,58.22
2022-08-08T06:30:09.263Z,58.18
2022-08-08T06:31:52.534Z,57.60
2022-08-08T06:32:52.674Z,57.66
2022-08-08T06:34:27.733Z,57.51
2022-08-08T06:36:07.350Z,57.82
2022-08-08T06:36:53.547Z,57.23
2022-08-08T06:37:59.995Z,57.60
2022-08-08T06:39:05.375Z,57.16
2022-08-08T06:40:16.682Z,56.83
2022-08-08T06:41:20.732Z,56.62
2022-08-08T06:42:24.155Z,56.82
2022-08-08T06:43:34.891Z,56.19
2022-08-08T06:44:42.536Z,56.42
2022-08-08T06:45:45.606Z,56.45
2022-08-08T06:46:52.243Z,56.32
2022-08-08T06:48:01.515Z,55.76
2022-08-08T06:49:05.950Z,55.86
2022-08-08T06:50:17.707Z,55.46
2022-08-08T06:51:48.857Z,55.65
2022-08-08T06:52:55.328Z,55.69
2022-08-08T06:54:01.511Z,55.79
2022-08-08T06:55:05.603Z,55.63
2022-08-08T06:56:09.689Z,55.52
2022-08-08T06:57:11.604Z,55.64
2022-08-08T06:58:18.711Z,55.60
2022-08-08T06:59:21.256Z,55.46
2022-08-08T07:00:32.619Z,55.74
2022-08-08T07:02:17.192Z,55.60
2022-08-08T07:03:08.696Z,55.32
2022-08-08T07:04:37.675Z,55.67
2022-08-08T07:06:01.984Z,56.06
2022-08-08T07:07:10.344Z,56.39
2022-08-08T07:08:27.922Z,56.05
2022-08-08T07:09:41.782Z,56.27
2022-08-08T07:11:03.143Z,55.99
2022-08-08T07:12:09.262Z,56.09
2022-08-08T07:13:17.655Z,55.80
2022-08-08T07:14:27.563Z,56.13
2022-08-08T07:16:04.599Z,55.70
2022-08-08T07:17:09.300Z,55.70
2022-08-08T07:18:36.191Z,56.04
2022-08-08T07:19:41.937Z,56.06
2022-08-08T07:20:50.338Z,56.01
2022-08-08T07:22:04.884Z,55.64
2022-08-08T07:23:15.710Z,55.64
2022-08-08T07:24:29.649Z,55.60
2022-08-08T07:25:35.186Z,55.69
2022-08-08T07:26:41.180Z,55.38
2022-08-08T07:28:02.514Z,55.39
2022-08-08T07:29:20.311Z,55.86
2022-08-08T07:30:34.200Z,55.89
2022-08-08T07:31:37.659Z,55.24
2022-08-08T07:32:41.023Z,55.53
2022-08-08T07:33:59.227Z,55.54
2022-08-08T07:35:06.472Z,55.36
2022-08-08T07:36:12.185Z,55.30
2022-08-08T07:37:18.428Z,55.45
2022-08-08T07:38:25.563Z,55.27
2022-08-08T07:39:45.818Z,54.99
2022-08-08T07:40:58.814Z,54.97
2022-08-08T07:42:04.183Z,55.10
2022-08-08T07:43:09.173Z,55.35
2022-08-08T07:44:37.011Z,54.97
2022-08-08T07:45:51.468Z,55.10
2022-08-08T07:46:59.086Z,54.70
2022-08-08T07:48:02.601Z,54.99
2022-08-08T07:49:09.473Z,54.52
2022-08-08T07:50:12.204Z,54.36
2022-08-08T07:51:23.909Z,54.42
2022-08-08T07:52:45.518Z,54.05
2022-08-08T07:54:02.401Z,53.90
2022-08-08T07:55:11.852Z,54.03
2022-08-08T07:56:16.389Z,53.68
2022-08-08T07:57:48.429Z,53.73
2022-08-08T07:58:51.666Z,53.81
2022-08-08T08:00:03.007Z,53.77
2022-08-08T08:01:07.442Z,53.37
2022-08-08T08:02:34.280Z,53.11
2022-08-08T08:03:44.513Z,53.53
2022-08-08T08:04:52.292Z,53.08
2022-08-08T08:05:56.546Z,52.92
2022-08-08T08:06:59.619Z,53.26
2022-08-08T08:08:06.017Z,53.27
2022-08-08T08:09:14.474Z,52.76
2022-08-08T08:10:30.583Z,52.67
2022-08-08T08:11:51.455Z,52.82
2022-08-08T08:13:01.724Z,52.99
2022-08-08T08:14:08.543Z,52.79
2022-08-08T08:15:16.129Z,52.34
2022-08-08T08:16:23.284Z,52.19
2022-08-08T08:17:25.983Z,51.79
2022-08-08T08:18:55.736Z,51.84
2022-08-08T08:20:04.519Z,51.31
2022-08-08T08:21:18.555Z,51.49
2022-08-08T08:22:25.532Z,51.32
2022-08-08T08:23:41.030Z,51.10
2022-08-08T08:24:46.724Z,51.32
2022-08-08T08:25:55.178Z,51.15
2022-08-08T08:26:56.969Z,51.20
2022-08-08T08:27:59.752Z,50.96
2022-08-08T08:29:06.220Z,50.79
2022-08-08T08:30:10.435Z,50.83
2022-08-08T08:31:12.190Z,50.73
2022-08-08T08:32:31.900Z,50.76
2022-08-08T08:33:37.753Z,50.52
2022-08-08T08:34:43.474Z,50.71
2022-08-08T08:36:19.012Z,50.40
2022-08-08T08:37:16.429Z,50.63
2022-08-08T08:38:23.739Z,50.38
2022-08-08T08:39:59.933Z,50.22
2022-08-08T08:40:51.430Z,50.21
2022-08-08T08:41:54.825Z,50.08
2022-08-08T08:43:00.594Z,49.93
2022-08-08T08:44:13.703Z,49.93
2022-08-08T08:45:23.548Z,50.25
2022-08-08T08:46:28.184Z,49.66
2022-08-08T08:47:33.829Z,49.55
2022-08-08T08:48:50.277Z,49.32
2022-08-08T08:49:51.975Z,48.97
2022-08-08T08:50:56.341Z,48.90
2022-08-08T08:52:03.392Z,48.58
2022-08-08T08:53:26.842Z,48.83
2022-08-08T08:54:34.603Z,49.02
2022-08-08T08:55:39.439Z,48.79
2022-08-08T08:56:42.783Z,48.65
2022-08-08T08:57:52.869Z,48.40
2022-08-08T08:58:56.448Z,48.50
2022-08-08T09:00:05.659Z,48.38
2022-08-08T09:01:13.145Z,48.51
2022-08-08T09:02:21.442Z,48.21
2022-08-08T09:03:36.845Z,48.40
2022-08-08T09:04:50.246Z,48.38
2022-08-08T09:05:56.291Z,48.16
2022-08-08T09:07:00.246Z,48.32
2022-08-08T09:08:13.085Z,48.37
2022-08-08T09:09:40.145Z,48.24
2022-08-08T09:10:48.639Z,48.21
2022-08-08T09:12:02.365Z,48.01
2022-08-08T09:13:11.504Z,48.09
2022-08-08T09:14:14.978Z,47.73
2022-08-08T09:15:18.632Z,47.62
2022-08-08T09:16:39.381Z,47.28
2022-08-08T09:17:55.203Z,47.22
2022-08-08T09:18:57.924Z,47.14
2022-08-08T09:21:58.980Z,47.09
2022-08-08T09:22:01.007Z,47.01
2022-08-08T09:22:48.380Z,47.08
2022-08-08T09:23:51.312Z,46.97
2022-08-08T09:24:58.446Z,46.97
2022-08-08T09:26:08.968Z,47.01
2022-08-08T09:27:20.371Z,46.89
2022-08-08T09:28:35.582Z,46.62
2022-08-08T09:29:52.723Z,46.55
2022-08-08T09:31:03.844Z,46.44
2022-08-08T09:32:19.451Z,46.21
2022-08-08T09:34:14.957Z,46.46
2022-08-08T09:34:51.616Z,46.61
2022-08-08T09:35:54.262Z,46.61
2022-08-08T09:37:46.232Z,46.37
2022-08-08T09:38:52.635Z,46.59
2022-08-08T09:40:02.506Z,46.50
2022-08-08T09:41:07.375Z,46.44
2022-08-08T09:42:22.154Z,46.41
2022-08-08T09:43:40.796Z,46.56
2022-08-08T09:45:08.232Z,46.37
2022-08-08T09:46:25.639Z,46.20
2022-08-08T09:48:11.365Z,46.47
2022-08-08T09:50:27.030Z,46.23
2022-08-08T09:51:41.510Z,46.36
2022-08-08T09:53:02.139Z,46.10
2022-08-08T09:54:19.748Z,46.25
2022-08-08T09:56:03.173Z,46.13
2022-08-08T09:57:03.648Z,46.15
2022-08-08T09:58:07.947Z,45.98
2022-08-08T09:59:50.345Z,45.47
2022-08-08T10:00:49.631Z,45.47
2022-08-08T10:01:59.214Z,45.52
2022-08-08T10:03:06.773Z,45.37
2022-08-08T10:04:35.580Z,45.25
2022-08-08T10:05:39.764Z,45.02
2022-08-08T10:06:45.225Z,45.05
2022-08-08T10:08:00.059Z,44.99
2022-08-08T10:09:02.559Z,44.83
2022-08-08T10:10:07.170Z,44.91
2022-08-08T10:12:22.387Z,44.54
2022-08-08T10:12:54.231Z,44.67
2022-08-08T10:14:07.331Z,44.58
2022-08-08T10:15:39.054Z,44.77
2022-08-08T10:16:42.567Z,44.72
2022-08-08T10:18:05.782Z,44.66
2022-08-08T10:19:11.442Z,44.32
2022-08-08T10:20:17.147Z,44.66
2022-08-08T10:21:26.050Z,44.35
2022-08-08T10:22:32.817Z,44.12
2022-08-08T10:23:47.124Z,44.50
2022-08-08T10:25:00.092Z,44.33
2022-08-08T10:26:25.564Z,44.12
2022-08-08T10:27:41.117Z,44.11
2022-08-08T10:28:55.143Z,44.27
2022-08-08T10:30:00.667Z,44.12
2022-08-08T10:31:46.452Z,43.67
2022-08-08T10:32:52.441Z,44.09
2022-08-08T10:34:19.207Z,43.90
2022-08-08T10:36:08.341Z,43.77
2022-08-08T10:36:49.387Z,43.50
2022-08-08T10:37:55.717Z,43.42
2022-08-08T10:39:03.829Z,43.90
2022-08-08T10:40:16.220Z,43.49
2022-08-08T10:41:24.297Z,43.46
2022-08-08T10:42:43.637Z,43.25
2022-08-08T10:43:50.797Z,43.08
2022-08-08T10:45:01.465Z,43.13
2022-08-08T10:46:04.101Z,43.27
2022-08-08T10:47:25.654Z,43.39
2022-08-08T10:48:38.754Z,43.53
2022-08-08T10:50:00.252Z,43.30
2022-08-08T10:51:12.660Z,43.23
2022-08-08T10:52:28.129Z,43.02
2022-08-08T10:53:39.220Z,42.87
2022-08-08T10:55:05.193Z,42.40
2022-08-08T10:56:10.198Z,42.72
2022-08-08T10:57:41.398Z,42.63
2022-08-08T10:58:58.626Z,42.63
2022-08-08T11:00:00.633Z,42.55
2022-08-08T11:01:12.706Z,42.87
2022-08-08T11:02:25.379Z,42.69
2022-08-08T11:03:37.194Z,42.57
2022-08-08T11:04:53.199Z,42.76
2022-08-08T11:06:00.698Z,42.36
2022-08-08T11:07:03.731Z,42.51
2022-08-08T11:08:38.830Z,42.44
2022-08-08T11:09:32.361Z,42.71
2022-08-08T11:10:36.114Z,42.12
2022-08-08T11:12:06.064Z,42.07
2022-08-08T11:13:28.797Z,41.55
2022-08-08T11:14:27.579Z,41.97
2022-08-08T11:15:30.649Z,41.65
2022-08-08T11:16:37.025Z,41.89
2022-08-08T11:18:00.148Z,41.67
2022-08-08T11:19:05.090Z,41.94
2022-08-08T11:20:12.519Z,42.00
2022-08-08T11:21:19.516Z,42.06
2022-08-08T11:22:29.592Z,41.86
2022-08-08T11:23:34.159Z,41.71
2022-08-08T11:24:37.839Z,42.11
2022-08-08T11:25:52.486Z,42.21
2022-08-08T11:26:59.876Z,42.16
2022-08-08T11:28:04.072Z,42.42
2022-08-08T11:29:07.508Z,41.93
2022-08-08T11:30:24.175Z,42.12
2022-08-08T11:31:46.598Z,41.47
2022-08-08T11:32:55.109Z,41.70
2022-08-08T11:34:03.315Z,42.00
2022-08-08T11:35:38.658Z,42.24
2022-08-08T11:36:45.942Z,41.81
2022-08-08T11:38:36.925Z,41.66
2022-08-08T11:39:19.832Z,41.95
2022-08-08T11:40:26.659Z,41.64
2022-08-08T11:41:33.513Z,41.24
2022-08-08T11:42:36.949Z,41.65
2022-08-08T11:43:42.187Z,41.30
2022-08-08T11:44:45.710Z,40.80
2022-08-08T11:46:10.067Z,41.19
2022-08-08T11:47:17.327Z,41.32
2022-08-08T11:48:20.413Z,41.05
2022-08-08T11:49:24.641Z,40.86
2022-08-08T11:50:32.230Z,40.96
2022-08-08T11:51:49.624Z,40.82
2022-08-08T11:52:57.820Z,40.76
2022-08-08T11:54:02.447Z,40.79
2022-08-08T11:55:16.359Z,40.34
2022-08-08T11:56:19.412Z,41.13
2022-08-08T11:57:27.667Z,41.01
2022-08-08T11:58:34.320Z,40.73
2022-08-08T11:59:58.727Z,40.66
2022-08-08T12:01:00.337Z,40.97
2022-08-08T12:02:31.091Z,41.20
2022-08-08T12:03:34.011Z,40.98
2022-08-08T12:04:37.681Z,40.91
2022-08-08T12:05:41.472Z,41.07
2022-08-08T12:06:43.346Z,41.17
2022-08-08T12:07:51.337Z,40.87
2022-08-08T12:08:53.556Z,41.70
2022-08-08T12:09:56.809Z,41.77
2022-08-08T12:11:04.470Z,41.44
2022-08-08T12:12:08.089Z,41.96
2022-08-08T12:13:12.205Z,42.19
2022-08-08T12:14:23.810Z,41.82
2022-08-08T12:15:42.007Z,41.88
2022-08-08T12:16:49.119Z,41.84
2022-08-08T12:17:51.833Z,42.18
2022-08-08T12:18:54.762Z,42.07
2022-08-08T12:19:58.424Z,41.77
2022-08-08T12:21:00.345Z,41.87
2022-08-08T12:22:08.768Z,41.46
2022-08-08T12:23:25.029Z,42.19
2022-08-08T12:24:51.348Z,41.99
2022-08-08T12:25:56.923Z,41.54
2022-08-08T12:26:59.727Z,42.06
2022-08-08T12:28:15.915Z,41.58
2022-08-08T12:29:40.240Z,41.39
2022-08-08T12:30:48.033Z,41.78
2022-08-08T12:32:03.643Z,41.39
2022-08-08T12:33:19.489Z,41.87
2022-08-08T12:34:36.199Z,42.25
2022-08-08T12:35:52.460Z,42.27
2022-08-08T12:37:05.196Z,41.64
2022-08-08T12:38:16.595Z,41.53
2022-08-08T12:40:00.977Z,41.93
2022-08-08T12:40:57.064Z,41.50
2022-08-08T12:42:04.831Z,42.22
2022-08-08T12:43:07.864Z,42.05
2022-08-08T12:44:14.639Z,41.97
2022-08-08T12:45:59.377Z,42.05
2022-08-08T12:47:01.074Z,41.63
2022-08-08T12:48:35.656Z,41.36
2022-08-08T12:49:43.795Z,42.29
2022-08-08T12:50:54.451Z,41.72
2022-08-08T12:52:01.019Z,41.88
2022-08-08T12:53:02.886Z,42.34
2022-08-08T12:54:24.406Z,41.50
2022-08-08T12:55:35.495Z,41.27
2022-08-08T12:56:51.339Z,41.87
2022-08-08T12:57:56.565Z,41.34
2022-08-08T12:59:00.126Z,42.12
2022-08-08T13:00:13.551Z,41.55
2022-08-08T13:01:29.519Z,41.40
2022-08-08T13:02:41.987Z,41.82
2022-08-08T13:03:53.585Z,41.39
2022-08-08T13:04:59.775Z,41.00
2022-08-08T13:06:13.732Z,40.71
2022-08-08T13:07:17.420Z,40.84
2022-08-08T13:08:20.452Z,40.63
2022-08-08T13:09:43.011Z,40.78
2022-08-08T13:10:58.526Z,41.36
2022-08-08T13:12:28.745Z,41.58
2022-08-08T13:13:34.990Z,41.64
2022-08-08T13:14:53.314Z,41.09
2022-08-08T13:16:17.787Z,41.81
2022-08-08T13:18:08.130Z,41.13
2022-08-08T13:18:55.653Z,41.27
2022-08-08T13:20:08.420Z,41.17
2022-08-08T13:21:13.396Z,41.44
2022-08-08T13:22:19.687Z,41.87
2022-08-08T13:23:36.110Z,41.51
2022-08-08T13:24:48.559Z,41.62
2022-08-08T13:25:59.507Z,41.74
2022-08-08T13:27:11.765Z,41.53
2022-08-08T13:28:13.795Z,41.42
2022-08-08T13:29:21.064Z,41.79
2022-08-08T13:30:26.465Z,41.48
2022-08-08T13:31:31.152Z,41.77
2022-08-08T13:32:36.124Z,41.67
2022-08-08T13:33:42.294Z,41.63
2022-08-08T13:34:50.269Z,41.55
2022-08-08T13:35:55.548Z,41.73
2022-08-08T13:37:00.939Z,41.56
2022-08-08T13:38:08.194Z,40.75
2022-08-08T13:39:14.941Z,41.37
2022-08-08T13:40:27.408Z,41.39
2022-08-08T13:41:38.876Z,41.17
2022-08-08T13:42:47.517Z,41.26
2022-08-08T13:43:49.661Z,40.67
2022-08-08T13:44:55.950Z,40.91
2022-08-08T13:46:07.988Z,41.04
2022-08-08T13:47:31.524Z,40.87
2022-08-08T13:48:43.461Z,41.27
2022-08-08T13:50:43.899Z,40.91
2022-08-08T13:51:33.566Z,41.25
2022-08-08T13:52:47.846Z,41.26
2022-08-08T13:53:59.753Z,41.47
2022-08-08T13:55:06.726Z,41.65
2022-08-08T13:56:11.536Z,41.26
2022-08-08T13:57:17.188Z,40.98
2022-08-08T13:58:20.145Z,41.39
2022-08-08T13:59:32.689Z,41.60
2022-08-08T14:00:42.446Z,41.23
2022-08-08T14:01:57.812Z,41.27
2022-08-08T14:03:19.962Z,41.10
2022-08-08T14:04:28.569Z,41.04
2022-08-08T14:05:34.323Z,40.73
2022-08-08T14:06:45.554Z,40.84
2022-08-08T14:07:49.865Z,40.72
2022-08-08T14:08:58.131Z,41.35
2022-08-08T14:10:05.497Z,40.83
2022-08-08T14:11:14.105Z,40.80
2022-08-08T14:12:19.933Z,41.16
2022-08-08T14:13:34.012Z,40.83
2022-08-08T14:14:41.806Z,41.27
2022-08-08T14:15:50.439Z,40.81
2022-08-08T14:16:53.583Z,40.57
2022-08-08T14:18:35.681Z,41.17
2022-08-08T14:19:57.448Z,40.85
2022-08-08T14:21:02.481Z,40.92
2022-08-08T14:22:13.568Z,41.10
2022-08-08T14:24:04.457Z,41.18
2022-08-08T14:24:49.975Z,40.87
2022-08-08T14:25:59.349Z,41.08
2022-08-08T14:27:17.088Z,41.30
2022-08-08T14:28:20.912Z,41.60
2022-08-08T14:29:34.650Z,41.09
2022-08-08T14:30:42.336Z,40.92
2022-08-08T14:32:08.883Z,41.48
2022-08-08T14:33:25.582Z,40.62
2022-08-08T14:34:32.478Z,41.28
2022-08-08T14:35:35.817Z,40.85
2022-08-08T14:36:40.606Z,41.13
2022-08-08T14:38:00.281Z,41.11
2022-08-08T14:39:11.485Z,40.96
2022-08-08T14:40:20.614Z,41.01
2022-08-08T14:41:45.574Z,40.98
2022-08-08T14:42:55.229Z,40.13
2022-08-08T14:44:09.762Z,40.12
2022-08-08T14:45:15.037Z,40.11
2022-08-08T14:46:32.682Z,40.60
2022-08-08T14:47:45.879Z,40.60
2022-08-08T14:48:58.937Z,39.98
2022-08-08T14:50:16.104Z,40.71
2022-08-08T14:51:20.972Z,40.16
2022-08-08T14:52:25.097Z,40.54
2022-08-08T14:53:37.292Z,40.04
2022-08-08T14:54:45.724Z,40.25
2022-08-08T14:55:48.671Z,40.14
2022-08-08T14:57:04.957Z,39.90
2022-08-08T14:58:11.321Z,39.93
2022-08-08T14:59:39.790Z,39.82
2022-08-08T15:00:38.566Z,39.86
2022-08-08T15:01:49.657Z,40.13
2022-08-08T15:02:59.225Z,40.16
2022-08-08T15:04:14.796Z,39.88
2022-08-08T15:05:22.567Z,39.74
2022-08-08T15:06:45.485Z,39.55
2022-08-08T15:07:53.672Z,39.21
2022-08-08T15:09:04.304Z,39.56
2022-08-08T15:10:09.400Z,39.69
2022-08-08T15:11:18.966Z,39.22
2022-08-08T15:12:27.646Z,39.28
2022-08-08T15:14:00.709Z,39.49
2022-08-08T15:15:06.883Z,40.00
2022-08-08T15:16:14.629Z,40.12
2022-08-08T15:17:18.233Z,40.19
2022-08-08T15:18:20.514Z,40.17
2022-08-08T15:19:23.821Z,40.33
2022-08-08T15:20:37.310Z,40.48
2022-08-08T15:21:42.917Z,39.93
2022-08-08T15:22:46.110Z,40.29
2022-08-08T15:23:51.327Z,39.54
2022-08-08T15:24:54.602Z,39.66
2022-08-08T15:25:57.761Z,39.44
2022-08-08T15:27:04.161Z,39.80
2022-08-08T15:28:34.601Z,39.87
2022-08-08T15:29:37.084Z,39.87
2022-08-08T15:30:40.824Z,39.83
2022-08-08T15:32:03.196Z,39.66
2022-08-08T15:33:06.177Z,39.61
2022-08-08T15:34:18.412Z,39.56
2022-08-08T15:35:39.117Z,39.86
2022-08-08T15:36:43.356Z,39.73
2022-08-08T15:37:45.948Z,38.99
2022-08-08T15:38:51.491Z,39.44
2022-08-08T15:39:54.753Z,39.39
2022-08-08T15:40:56.609Z,39.68
2022-08-08T15:42:00.005Z,39.60
2022-08-08T15:43:03.879Z,39.18
2022-08-08T15:44:22.146Z,39.45
2022-08-08T15:45:29.840Z,38.87
2022-08-08T15:46:35.269Z,39.57
2022-08-08T15:47:38.233Z,39.42
2022-08-08T15:48:40.165Z,38.96
2022-08-08T15:49:43.692Z,38.79
2022-08-08T15:51:00.869Z,39.56
2022-08-08T15:52:08.608Z,39.61
2022-08-08T15:53:10.758Z,39.08
2022-08-08T15:54:18.451Z,39.55
2022-08-08T15:55:40.159Z,38.83
2022-08-08T15:56:42.841Z,39.71
2022-08-08T15:57:45.548Z,39.30